createdAt,value
2022-12-27T00:00:25.865Z,16.83
2022-12-27T00:02:58.099Z,15.23
2022-12-27T00:05:26.040Z,13.20
2022-12-27T00:07:56.201Z,16.73
2022-12-27T00:10:25.803Z,14.63
2022-12-27T00:12:54.286Z,17.63
2022-12-27T00:15:24.543Z,14.55
2022-12-27T00:17:53.155Z,13.55
2022-12-27T00:20:21.520Z,13.38
2022-12-27T00:22:51.303Z,15.25
2022-12-27T00:25:20.145Z,16.05
2022-12-27T00:27:50.274Z,15.90
2022-12-27T00:30:20.967Z,14.43
2022-12-27T00:32:51.555Z,14.25
2022-12-27T00:35:30.357Z,13.68
2022-12-27T00:37:58.036Z,11.65
2022-12-27T00:40:29.328Z,14.27
2022-12-27T00:42:59.273Z,12.82
2022-12-27T00:45:30.647Z,12.52
2022-12-27T00:47:57.983Z,14.23
2022-12-27T00:50:26.222Z,13.68
2022-12-27T00:52:57.425Z,13.85
2022-12-27T00:55:28.460Z,13.50
2022-12-27T00:57:58.209Z,15.90
2022-12-27T01:00:27.093Z,14.32
2022-12-27T01:02:55.367Z,15.98
2022-12-27T01:05:25.157Z,20.40
2022-12-27T01:07:54.107Z,18.13
2022-12-27T01:10:22.397Z,17.58
2022-12-27T01:12:54.151Z,17.83
2022-12-27T01:15:22.061Z,18.73
2022-12-27T01:17:54.208Z,18.02
2022-12-27T01:20:25.333Z,18.02
2022-12-27T01:22:57.059Z,15.07
2022-12-27T01:25:24.899Z,13.13
2022-12-27T01:27:53.097Z,15.95
2022-12-27T01:30:21.019Z,18.00
2022-12-27T01:32:51.737Z,14.70
2022-12-27T01:35:20.023Z,17.00
2022-12-27T01:37:48.100Z,16.45
2022-12-27T01:40:16.268Z,15.07
2022-12-27T01:42:53.017Z,17.90
2022-12-27T01:45:32.957Z,18.27
2022-12-27T01:48:34.401Z,20.45
2022-12-27T01:51:09.559Z,15.43
2022-12-27T01:53:42.456Z,13.23
2022-12-27T01:56:19.780Z,15.88
2022-12-27T01:59:05.743Z,15.95
2022-12-27T02:01:39.766Z,16.05
2022-12-27T02:04:19.665Z,13.90
2022-12-27T02:06:51.040Z,13.88
2022-12-27T02:09:43.291Z,15.90
2022-12-27T02:12:11.702Z,12.43
2022-12-27T02:14:55.102Z,11.50
2022-12-27T02:17:32.201Z,13.73
2022-12-27T02:20:20.462Z,11.95
2022-12-27T02:23:27.577Z,10.82
2022-12-27T02:26:31.718Z,10.32
2022-12-27T02:29:23.181Z,12.10
2022-12-27T02:32:31.072Z,10.32
2022-12-27T02:35:27.066Z,10.25
2022-12-27T02:38:02.553Z,9.68
2022-12-27T02:40:52.717Z,11.98
2022-12-27T02:43:41.989Z,11.90
2022-12-27T02:46:44.533Z,10.48
2022-12-27T02:49:53.879Z,11.00
2022-12-27T02:53:03.624Z,11.18
2022-12-27T02:56:08.560Z,15.68
2022-12-27T02:59:19.070Z,11.50
2022-12-27T03:02:35.946Z,9.13
2022-12-27T03:05:24.939Z,10.02
2022-12-27T03:08:31.921Z,13.05
2022-12-27T03:11:25.065Z,10.32
2022-12-27T03:14:37.087Z,8.95
2022-12-27T03:17:19.525Z,7.32
2022-12-27T03:20:16.658Z,8.20
2022-12-27T03:23:08.084Z,7.75
2022-12-27T03:25:38.343Z,9.13
2022-12-27T03:28:51.275Z,8.35
2022-12-27T03:31:51.972Z,12.75
2022-12-27T03:34:32.999Z,10.43
2022-12-27T03:38:13.680Z,10.60
2022-12-27T03:41:20.166Z,10.45
2022-12-27T03:43:50.858Z,14.60
2022-12-27T03:46:34.110Z,11.20
2022-12-27T03:49:32.124Z,13.25
2022-12-27T03:52:37.973Z,20.50
2022-12-27T03:55:10.779Z,20.17
2022-12-27T03:57:42.106Z,23.85
2022-12-27T04:00:18.391Z,21.08
2022-12-27T04:02:49.830Z,23.52
2022-12-27T04:05:18.428Z,22.42
2022-12-27T04:08:05.117Z,25.35
2022-12-27T04:10:54.716Z,23.30
2022-12-27T04:13:44.952Z,22.52
2022-12-27T04:16:31.833Z,19.23
2022-12-27T04:19:18.744Z,22.50
2022-12-27T04:22:06.622Z,24.25
2022-12-27T04:24:57.941Z,27.10
2022-12-27T04:27:48.189Z,24.75
2022-12-27T04:30:34.932Z,24.15
2022-12-27T04:33:21.678Z,26.63
2022-12-27T04:35:53.451Z,25.80
2022-12-27T04:38:24.363Z,23.17
2022-12-27T04:41:12.624Z,27.83
2022-12-27T04:44:03.020Z,25.70
2022-12-27T04:46:48.801Z,26.35
2022-12-27T04:49:47.028Z,26.85
2022-12-27T04:52:43.675Z,29.00
2022-12-27T04:55:29.169Z,27.58
2022-12-27T04:58:00.219Z,26.20
2022-12-27T05:00:52.023Z,29.95
2022-12-27T05:03:25.399Z,28.20
2022-12-27T05:05:54.457Z,21.98
2022-12-27T05:08:44.257Z,23.98
2022-12-27T05:11:30.715Z,21.10
2022-12-27T05:14:02.398Z,23.15
2022-12-27T05:16:50.299Z,22.92
2022-12-27T05:19:20.771Z,19.80
2022-12-27T05:22:09.756Z,16.95
2022-12-27T05:24:57.667Z,12.75
2022-12-27T05:27:27.446Z,16.50
2022-12-27T05:29:58.411Z,16.02
2022-12-27T05:32:29.111Z,11.27
2022-12-27T05:35:00.318Z,12.02
2022-12-27T05:37:28.350Z,11.38
2022-12-27T05:39:56.605Z,12.00
2022-12-27T05:42:27.115Z,11.90
2022-12-27T05:44:56.293Z,11.05
2022-12-27T05:47:23.456Z,12.57
2022-12-27T05:49:52.776Z,13.07
2022-12-27T05:52:20.385Z,10.40
2022-12-27T05:54:53.995Z,10.57
2022-12-27T05:57:22.619Z,9.20
2022-12-27T05:59:51.469Z,13.13
2022-12-27T06:02:19.669Z,11.45
2022-12-27T06:04:49.901Z,9.23
2022-12-27T06:07:20.993Z,11.77
2022-12-27T06:09:48.648Z,10.38
2022-12-27T06:12:18.649Z,17.30
2022-12-27T06:14:48.081Z,16.27
2022-12-27T06:17:16.377Z,15.82
2022-12-27T06:19:53.906Z,14.10
2022-12-27T06:22:24.514Z,13.63
2022-12-27T06:24:54.192Z,11.68
2022-12-27T06:27:26.674Z,14.57
2022-12-27T06:29:59.210Z,12.93
2022-12-27T06:32:28.663Z,15.70
2022-12-27T06:34:57.647Z,20.73
2022-12-27T06:37:28.608Z,15.10
2022-12-27T06:39:58.775Z,18.92
2022-12-27T06:42:34.664Z,12.95
2022-12-27T06:45:04.804Z,10.98
2022-12-27T06:47:35.740Z,12.95
2022-12-27T06:50:03.989Z,12.48
2022-12-27T06:52:32.794Z,11.77
2022-12-27T06:55:00.666Z,13.15
2022-12-27T06:57:28.331Z,18.27
2022-12-27T06:59:57.565Z,16.55
2022-12-27T07:02:25.456Z,22.13
2022-12-27T07:04:53.360Z,12.82
2022-12-27T07:07:23.941Z,15.77
2022-12-27T07:09:53.631Z,15.07
2022-12-27T07:12:21.626Z,19.10
2022-12-27T07:14:51.739Z,31.55
2022-12-27T07:17:22.855Z,23.77
2022-12-27T07:19:53.522Z,16.42
2022-12-27T07:22:23.992Z,14.55
2022-12-27T07:24:55.609Z,15.43
2022-12-27T07:27:29.845Z,14.98
2022-12-27T07:29:57.475Z,11.63
2022-12-27T07:32:32.428Z,12.40
2022-12-27T07:35:02.174Z,15.85
2022-12-27T07:37:32.816Z,14.07
2022-12-27T07:40:03.079Z,14.85
2022-12-27T07:42:33.079Z,18.08
2022-12-27T07:45:03.023Z,16.83
2022-12-27T07:47:35.958Z,21.65
2022-12-27T07:50:03.747Z,29.38
2022-12-27T07:52:33.724Z,20.67
2022-12-27T07:55:02.671Z,22.17
2022-12-27T07:57:34.062Z,20.42
2022-12-27T08:00:01.242Z,13.52
2022-12-27T08:02:51.201Z,16.88
2022-12-27T08:05:25.902Z,19.00
2022-12-27T08:07:57.841Z,20.08
2022-12-27T08:10:26.384Z,16.10
2022-12-27T08:12:54.526Z,16.90
2022-12-27T08:15:27.285Z,17.75
2022-12-27T08:17:58.191Z,16.60
2022-12-27T08:20:30.676Z,18.63
2022-12-27T08:22:58.524Z,18.88
2022-12-27T08:25:29.352Z,14.75
2022-12-27T08:28:10.466Z,21.67
2022-12-27T08:30:44.670Z,21.55
2022-12-27T08:33:18.695Z,21.17
2022-12-27T08:35:53.998Z,22.40
2022-12-27T08:38:30.639Z,33.15
2022-12-27T08:41:02.114Z,37.13
2022-12-27T08:43:50.620Z,35.13
2022-12-27T08:46:20.202Z,30.17
2022-12-27T08:48:52.921Z,33.70
2022-12-27T08:51:32.752Z,32.55
2022-12-27T08:54:03.236Z,36.75
2022-12-27T08:56:35.051Z,55.35
2022-12-27T08:59:06.370Z,35.38
2022-12-27T09:01:36.130Z,21.60
2022-12-27T09:04:03.707Z,22.27
2022-12-27T09:06:41.162Z,27.10
2022-12-27T09:09:12.105Z,19.75
2022-12-27T09:11:39.186Z,22.73
2022-12-27T09:14:10.261Z,22.25
2022-12-27T09:16:40.573Z,27.65
2022-12-27T09:19:17.663Z,23.35
2022-12-27T09:21:45.557Z,19.73
2022-12-27T09:24:15.728Z,27.02
2022-12-27T09:26:43.558Z,29.60
2022-12-27T09:29:15.047Z,32.53
2022-12-27T09:31:47.545Z,32.80
2022-12-27T09:34:17.680Z,30.73
2022-12-27T09:36:45.824Z,32.65
2022-12-27T09:39:21.444Z,34.90
2022-12-27T09:42:52.179Z,28.42
2022-12-27T09:45:46.015Z,24.33
2022-12-27T09:48:32.775Z,31.05
2022-12-27T09:51:25.801Z,29.45
2022-12-27T09:54:21.804Z,28.42
2022-12-27T09:57:18.729Z,37.97
2022-12-27T09:59:48.473Z,35.78
2022-12-27T10:02:22.351Z,40.65
2022-12-27T10:05:20.182Z,46.45
2022-12-27T10:08:31.588Z,42.88
2022-12-27T10:11:41.857Z,38.38
2022-12-27T10:14:32.552Z,34.67
2022-12-27T10:17:48.087Z,33.53
2022-12-27T10:20:43.461Z,30.15
2022-12-27T10:23:23.254Z,29.77
2022-12-27T10:26:03.884Z,22.90
2022-12-27T10:28:42.751Z,26.88
2022-12-27T10:31:21.896Z,21.27
2022-12-27T10:33:53.631Z,23.33
2022-12-27T10:36:27.783Z,23.70
2022-12-27T10:38:56.592Z,24.05
2022-12-27T10:41:57.666Z,24.25
2022-12-27T10:44:27.227Z,24.73
2022-12-27T10:47:01.204Z,26.63
2022-12-27T10:49:40.786Z,20.95
2022-12-27T10:52:34.189Z,23.50
2022-12-27T10:55:06.176Z,23.60
2022-12-27T10:57:40.364Z,28.40
2022-12-27T11:00:24.082Z,24.45
2022-12-27T11:03:06.884Z,28.55
2022-12-27T11:05:43.001Z,29.45
2022-12-27T11:08:28.476Z,23.90
2022-12-27T11:11:24.740Z,26.13
2022-12-27T11:14:09.509Z,23.38
2022-12-27T11:16:40.480Z,20.33
2022-12-27T11:19:30.637Z,21.60
2022-12-27T11:22:13.576Z,20.95
2022-12-27T11:24:49.620Z,22.10
2022-12-27T11:27:37.725Z,23.08
2022-12-27T11:30:07.741Z,18.30
2022-12-27T11:32:39.097Z,22.05
2022-12-27T11:35:22.164Z,21.02
2022-12-27T11:37:50.407Z,23.73
2022-12-27T11:40:37.706Z,26.23
2022-12-27T11:43:16.016Z,22.35
2022-12-27T11:45:50.545Z,20.98
2022-12-27T11:51:35.250Z,22.92
2022-12-27T11:54:39.453Z,17.92
2022-12-27T11:57:31.832Z,17.88
2022-12-27T12:00:18.354Z,18.83
2022-12-27T12:03:38.664Z,20.27
2022-12-27T12:06:28.782Z,20.90
2022-12-27T12:09:57.604Z,19.10
2022-12-27T12:12:48.918Z,19.88
2022-12-27T12:15:55.330Z,24.60
2022-12-27T12:18:59.113Z,21.45
2022-12-27T12:22:06.807Z,21.80
2022-12-27T12:24:53.500Z,20.05
2022-12-27T12:27:58.204Z,19.55
2022-12-27T12:30:55.286Z,20.73
2022-12-27T12:33:40.352Z,18.17
2022-12-27T12:36:28.991Z,18.92
2022-12-27T12:39:24.225Z,17.80
2022-12-27T12:42:13.646Z,17.48
2022-12-27T12:45:19.123Z,19.75
2022-12-27T12:48:33.592Z,15.10
2022-12-27T12:51:28.888Z,16.40
2022-12-27T12:54:18.059Z,11.98
2022-12-27T12:57:13.596Z,11.80
2022-12-27T13:00:23.065Z,9.52
2022-12-27T13:03:13.172Z,12.50
2022-12-27T13:06:02.708Z,13.32
2022-12-27T13:12:08.195Z,11.48
2022-12-27T13:15:21.079Z,12.18
2022-12-27T13:18:17.732Z,10.98
2022-12-27T13:21:37.825Z,13.15
2022-12-27T13:24:41.709Z,14.30
2022-12-27T13:27:10.803Z,15.30
2022-12-27T13:29:50.212Z,16.92
2022-12-27T13:32:46.223Z,15.52
2022-12-27T13:36:13.913Z,16.02
2022-12-27T13:39:26.850Z,17.63
2022-12-27T13:42:32.263Z,14.65
2022-12-27T13:45:42.952Z,6.60
2022-12-27T13:48:52.755Z,5.18
2022-12-27T13:51:52.247Z,5.57
2022-12-27T13:54:43.805Z,3.75
2022-12-27T13:57:53.664Z,4.10
2022-12-27T14:00:30.249Z,6.53
2022-12-27T14:03:41.374Z,7.60
2022-12-27T14:07:05.617Z,8.75
2022-12-27T14:09:43.793Z,5.22
2022-12-27T14:12:33.208Z,5.72
2022-12-27T14:15:09.419Z,6.45
2022-12-27T14:18:13.724Z,5.63
2022-12-27T14:21:18.476Z,8.27
2022-12-27T14:24:17.373Z,11.18
2022-12-27T14:27:08.778Z,10.93
2022-12-27T14:30:06.598Z,6.90
2022-12-27T14:33:02.611Z,6.97
2022-12-27T14:35:49.891Z,9.13
2022-12-27T14:38:43.395Z,10.88
2022-12-27T14:41:48.415Z,12.10
2022-12-27T14:44:49.668Z,8.13
2022-12-27T14:47:29.407Z,14.68
2022-12-27T14:50:33.148Z,12.70
2022-12-27T14:53:02.766Z,9.70
2022-12-27T14:56:00.871Z,8.10
2022-12-27T14:58:32.091Z,14.82
2022-12-27T15:01:31.334Z,9.25
2022-12-27T15:04:10.274Z,8.95
2022-12-27T15:07:14.227Z,8.55
2022-12-27T15:10:30.245Z,12.95
2022-12-27T15:13:19.649Z,8.57
2022-12-27T15:15:58.978Z,7.60
2022-12-27T15:19:01.603Z,9.35
2022-12-27T15:21:59.418Z,7.40
2022-12-27T15:25:17.376Z,6.22
2022-12-27T15:28:28.043Z,8.15
2022-12-27T15:31:12.027Z,6.03
2022-12-27T15:34:11.497Z,5.63
2022-12-27T15:36:49.972Z,6.70
2022-12-27T15:39:43.307Z,5.72
2022-12-27T15:43:05.602Z,8.32
2022-12-27T15:46:05.568Z,7.20
2022-12-27T15:48:35.584Z,12.68
2022-12-27T15:51:39.291Z,7.53
2022-12-27T15:54:40.391Z,10.93
2022-12-27T15:57:50.335Z,9.45
2022-12-27T16:00:34.364Z,12.85
2022-12-27T16:03:31.704Z,11.27
2022-12-27T16:06:03.708Z,12.77
2022-12-27T16:08:39.988Z,12.98
2022-12-27T16:11:14.658Z,10.93
2022-12-27T16:13:49.183Z,12.38
2022-12-27T16:16:30.866Z,6.80
2022-12-27T16:19:25.327Z,9.65
2022-12-27T16:21:55.876Z,9.93
2022-12-27T16:24:27.156Z,6.13
2022-12-27T16:27:07.762Z,7.38
2022-12-27T16:29:44.565Z,7.35
2022-12-27T16:32:24.252Z,5.57
2022-12-27T16:34:55.823Z,5.65
2022-12-27T16:37:42.992Z,6.35
2022-12-27T16:40:51.085Z,5.50
2022-12-27T16:43:19.174Z,5.50
2022-12-27T16:46:12.545Z,5.75
2022-12-27T16:49:23.280Z,7.57
2022-12-27T16:52:32.981Z,9.15
2022-12-27T16:55:58.574Z,4.95
2022-12-27T16:58:38.370Z,8.13
2022-12-27T17:01:43.997Z,9.85
2022-12-27T17:05:09.209Z,14.20
2022-12-27T17:07:53.439Z,6.57
2022-12-27T17:10:43.599Z,20.52
2022-12-27T17:13:36.784Z,20.60
2022-12-27T17:16:22.985Z,14.38
2022-12-27T17:19:17.894Z,11.30
2022-12-27T17:21:55.676Z,6.80
2022-12-27T17:24:26.149Z,8.32
2022-12-27T17:27:01.630Z,12.00
2022-12-27T17:30:10.884Z,12.32
2022-12-27T17:33:13.715Z,10.73
2022-12-27T17:36:13.196Z,15.23
2022-12-27T17:39:39.196Z,10.38
2022-12-27T17:43:14.293Z,11.55
2022-12-27T17:45:51.055Z,15.18
2022-12-27T17:48:36.537Z,7.38
2022-12-27T17:51:28.343Z,9.23
2022-12-27T17:54:15.685Z,10.23
2022-12-27T17:57:05.829Z,14.50
2022-12-27T17:59:39.468Z,19.70
2022-12-27T18:02:17.484Z,15.97
2022-12-27T18:04:59.270Z,9.57
2022-12-27T18:07:30.012Z,7.25
2022-12-27T18:10:17.588Z,7.95
2022-12-27T18:13:05.816Z,11.02
2022-12-27T18:15:36.844Z,9.88
2022-12-27T18:18:11.568Z,8.95
2022-12-27T18:23:23.305Z,7.97
2022-12-27T18:25:56.434Z,9.90
2022-12-27T18:28:34.208Z,10.48
2022-12-27T18:31:37.612Z,9.02
2022-12-27T18:34:37.046Z,8.52
2022-12-27T18:37:28.972Z,8.48
2022-12-27T18:40:03.073Z,9.95
2022-12-27T18:42:56.205Z,5.72
2022-12-27T18:45:31.240Z,7.38
2022-12-27T18:48:15.993Z,7.22
2022-12-27T18:50:53.727Z,9.45
2022-12-27T18:53:38.701Z,4.40
2022-12-27T18:56:33.049Z,7.15
2022-12-27T18:59:31.065Z,5.57
2022-12-27T19:02:39.469Z,5.55
2022-12-27T19:05:35.300Z,5.85
2022-12-27T19:08:35.876Z,5.07
2022-12-27T19:11:07.774Z,4.93
2022-12-27T19:13:53.103Z,5.95
2022-12-27T19:16:40.727Z,6.70
2022-12-27T19:19:24.727Z,6.20
2022-12-27T19:21:56.487Z,5.43
2022-12-27T19:24:26.813Z,7.15
2022-12-27T19:26:58.031Z,5.90
2022-12-27T19:29:36.518Z,9.35
2022-12-27T19:32:12.950Z,5.03
2022-12-27T19:34:54.075Z,6.85
2022-12-27T19:37:29.196Z,5.38
2022-12-27T19:39:58.372Z,7.45
2022-12-27T19:42:38.558Z,6.50
2022-12-27T19:45:14.397Z,5.88
2022-12-27T19:47:45.707Z,6.72
2022-12-27T19:50:17.934Z,7.47
2022-12-27T19:52:49.694Z,6.82
2022-12-27T19:55:31.259Z,12.52
2022-12-27T19:57:59.278Z,10.43
2022-12-27T20:00:30.236Z,15.95
2022-12-27T20:03:00.952Z,11.02
2022-12-27T20:06:12.568Z,14.10
2022-12-27T20:08:39.350Z,12.00
2022-12-27T20:11:18.409Z,15.57
2022-12-27T20:13:52.744Z,13.13
2022-12-27T20:16:21.183Z,13.30
2022-12-27T20:18:51.965Z,21.75
2022-12-27T20:21:20.623Z,15.57
2022-12-27T20:23:54.982Z,11.60
2022-12-27T20:26:27.226Z,11.35
2022-12-27T20:28:56.003Z,18.08
2022-12-27T20:31:26.277Z,15.18
2022-12-27T20:33:58.570Z,14.23
2022-12-27T20:36:30.050Z,15.52
2022-12-27T20:38:59.369Z,18.90
2022-12-27T20:41:30.987Z,14.05
2022-12-27T20:44:01.467Z,11.65
2022-12-27T20:46:32.263Z,12.93
2022-12-27T20:49:06.964Z,13.55
2022-12-27T20:51:40.883Z,10.68
2022-12-27T20:54:13.567Z,10.65
2022-12-27T20:56:44.268Z,11.65
2022-12-27T20:59:14.902Z,11.45
2022-12-27T21:01:43.611Z,13.63
2022-12-27T21:04:15.945Z,10.50
2022-12-27T21:06:44.246Z,11.27
2022-12-27T21:09:16.168Z,12.45
2022-12-27T21:11:45.059Z,8.88
2022-12-27T21:14:16.222Z,8.65
2022-12-27T21:16:44.311Z,8.65
2022-12-27T21:19:15.063Z,7.88
2022-12-27T21:21:43.322Z,8.13
2022-12-27T21:24:15.655Z,6.80
2022-12-27T21:26:46.832Z,7.53
2022-12-27T21:29:16.779Z,11.07
2022-12-27T21:31:44.931Z,9.07
2022-12-27T21:34:12.914Z,9.55
2022-12-27T21:36:44.055Z,6.75
2022-12-27T21:39:15.185Z,4.93
2022-12-27T21:41:43.354Z,8.88
2022-12-27T21:44:13.264Z,5.95
2022-12-27T21:46:45.914Z,6.40
2022-12-27T21:49:16.058Z,6.75
2022-12-27T21:51:44.201Z,5.93
2022-12-27T21:54:17.361Z,9.05
2022-12-27T21:56:45.962Z,5.20
2022-12-27T21:59:13.598Z,8.13
2022-12-27T22:01:50.022Z,8.45
2022-12-27T22:04:20.968Z,11.93
2022-12-27T22:06:51.446Z,6.97
2022-12-27T22:09:21.200Z,11.38
2022-12-27T22:11:50.798Z,6.50
2022-12-27T22:14:25.230Z,9.38
2022-12-27T22:16:57.800Z,15.88
2022-12-27T22:19:24.859Z,12.55
2022-12-27T22:21:53.324Z,12.88
2022-12-27T22:24:22.484Z,7.78
2022-12-27T22:26:51.381Z,9.43
2022-12-27T22:29:21.832Z,10.30
2022-12-27T22:31:51.664Z,7.95
2022-12-27T22:34:20.948Z,6.57
2022-12-27T22:36:56.164Z,8.48
2022-12-27T22:39:24.307Z,9.15
2022-12-27T22:41:52.603Z,6.82
2022-12-27T22:44:27.861Z,8.55
2022-12-27T22:47:25.904Z,5.55
2022-12-27T22:49:50.088Z,7.10
2022-12-27T22:52:23.048Z,9.43
2022-12-27T22:55:05.595Z,7.30
2022-12-27T22:57:37.515Z,7.45
2022-12-27T23:00:10.886Z,6.63
2022-12-27T23:02:41.537Z,5.10
2022-12-27T23:05:10.544Z,6.10
2022-12-27T23:08:04.691Z,6.20
2022-12-27T23:10:33.146Z,5.82
2022-12-27T23:13:03.272Z,10.65
2022-12-27T23:15:33.909Z,5.97
2022-12-27T23:18:03.827Z,6.35
2022-12-27T23:20:36.961Z,6.70
2022-12-27T23:23:07.314Z,7.28
2022-12-27T23:25:38.169Z,7.13
2022-12-27T23:28:09.077Z,7.25
2022-12-27T23:30:41.681Z,8.35
2022-12-27T23:33:09.778Z,9.55
2022-12-27T23:35:40.005Z,8.73
2022-12-27T23:38:09.879Z,5.78
2022-12-27T23:40:40.649Z,7.38
2022-12-27T23:43:50.460Z,8.55
2022-12-27T23:46:16.481Z,7.93
2022-12-27T23:48:47.666Z,8.75
2022-12-27T23:51:18.660Z,5.72
2022-12-27T23:53:47.786Z,6.80
2022-12-27T23:56:24.172Z,7.03
2022-12-27T23:58:56.536Z,6.60
